createdAt,value
2019-06-01T00:01:23.708Z,18.03
2019-06-01T00:03:55.686Z,17.70
2019-06-01T00:06:27.739Z,17.63
2019-06-01T00:08:59.742Z,18.23
2019-06-01T00:11:31.748Z,17.77
2019-06-01T00:14:04.166Z,18.37
2019-06-01T00:16:36.463Z,17.87
2019-06-01T00:19:08.476Z,17.60
2019-06-01T00:21:41.153Z,18.27
2019-06-01T00:24:13.208Z,18.83
2019-06-01T00:26:45.854Z,18.80
2019-06-01T00:29:17.911Z,17.37
2019-06-01T00:31:50.053Z,17.47
2019-06-01T00:34:22.012Z,18.57
2019-06-01T00:36:54.062Z,19.07
2019-06-01T00:39:26.048Z,19.93
2019-06-01T00:41:58.344Z,18.07
2019-06-01T00:44:30.441Z,19.73
2019-06-01T00:47:02.421Z,20.23
2019-06-01T00:49:34.394Z,19.10
2019-06-01T00:52:06.405Z,20.20
2019-06-01T00:54:38.428Z,21.37
2019-06-01T00:57:10.413Z,19.27
2019-06-01T00:59:43.593Z,20.20
2019-06-01T01:02:15.736Z,20.80
2019-06-01T01:04:50.371Z,19.27
2019-06-01T01:07:22.386Z,20.13
2019-06-01T01:09:54.995Z,20.90
2019-06-01T01:12:26.980Z,21.53
2019-06-01T01:14:58.938Z,20.43
2019-06-01T01:17:30.929Z,20.57
2019-06-01T01:20:02.890Z,19.93
2019-06-01T01:22:34.897Z,19.90
2019-06-01T01:25:07.723Z,20.13
2019-06-01T01:27:39.732Z,19.97
2019-06-01T01:30:11.846Z,20.83
2019-06-01T01:32:43.832Z,19.33
2019-06-01T01:35:16.028Z,18.93
2019-06-01T01:37:48.093Z,20.20
2019-06-01T01:40:20.293Z,19.43
2019-06-01T01:42:54.399Z,19.97
2019-06-01T01:45:26.794Z,19.27
2019-06-01T01:47:59.247Z,18.93
2019-06-01T01:50:31.325Z,19.73
2019-06-01T01:53:03.449Z,20.37
2019-06-01T01:55:35.466Z,17.70
2019-06-01T01:58:07.428Z,19.90
2019-06-01T02:00:43.733Z,19.40
2019-06-01T02:03:15.985Z,18.77
2019-06-01T02:05:48.068Z,18.80
2019-06-01T02:08:20.035Z,18.27
2019-06-01T02:10:53.226Z,17.97
2019-06-01T02:13:25.358Z,18.07
2019-06-01T02:15:58.254Z,17.43
2019-06-01T02:18:30.410Z,17.10
2019-06-01T02:21:02.730Z,16.97
2019-06-01T02:23:34.809Z,17.70
2019-06-01T02:26:06.909Z,17.00
2019-06-01T02:28:38.869Z,16.33
2019-06-01T02:31:10.838Z,16.07
2019-06-01T02:33:42.841Z,16.27
2019-06-01T02:36:14.946Z,15.57
2019-06-01T02:38:46.940Z,16.63
2019-06-01T02:41:18.996Z,15.93
2019-06-01T02:43:51.115Z,15.47
2019-06-01T02:46:23.366Z,16.33
2019-06-01T02:48:55.530Z,15.37
2019-06-01T02:51:27.582Z,15.10
2019-06-01T02:53:59.680Z,16.10
2019-06-01T02:56:31.675Z,14.80
2019-06-01T02:59:04.401Z,15.27
2019-06-01T03:01:38.102Z,14.47
2019-06-01T03:04:11.902Z,13.27
2019-06-01T03:06:45.091Z,12.73
2019-06-01T03:09:18.653Z,13.27
2019-06-01T03:11:53.759Z,13.50
2019-06-01T03:14:28.888Z,13.73
2019-06-01T03:17:01.954Z,12.93
2019-06-01T03:19:38.464Z,13.77
2019-06-01T03:22:14.686Z,12.13
2019-06-01T03:24:50.653Z,12.40
2019-06-01T03:27:23.939Z,13.30
2019-06-01T03:29:58.669Z,12.37
2019-06-01T03:32:36.729Z,12.07
2019-06-01T03:35:05.157Z,11.53
2019-06-01T03:37:37.125Z,11.17
2019-06-01T03:40:15.643Z,10.60
2019-06-01T03:42:43.032Z,10.17
2019-06-01T03:45:15.173Z,10.07
2019-06-01T03:47:47.215Z,9.23
2019-06-01T03:50:19.251Z,8.87
2019-06-01T03:52:51.230Z,8.63
2019-06-01T03:55:23.297Z,8.50
2019-06-01T03:57:55.224Z,7.93
2019-06-01T04:00:27.485Z,8.10
2019-06-01T04:03:00.798Z,8.20
2019-06-01T04:05:32.889Z,9.03
2019-06-01T04:08:05.590Z,8.33
2019-06-01T04:10:37.659Z,8.30
2019-06-01T04:13:09.689Z,8.00
2019-06-01T04:15:41.666Z,7.47
2019-06-01T04:18:14.085Z,6.93
2019-06-01T04:20:46.066Z,7.57
2019-06-01T04:23:18.021Z,7.30
2019-06-01T04:25:50.074Z,7.00
2019-06-01T04:28:23.400Z,7.37
2019-06-01T04:30:55.587Z,6.77
2019-06-01T04:33:27.609Z,6.17
2019-06-01T04:35:59.663Z,5.90
2019-06-01T04:38:31.628Z,6.90
2019-06-01T04:41:03.805Z,5.90
2019-06-01T04:43:35.763Z,5.87
2019-06-01T04:46:08.211Z,5.47
2019-06-01T04:48:40.523Z,5.47
2019-06-01T04:51:13.474Z,6.27
2019-06-01T04:53:45.478Z,5.57
2019-06-01T04:56:17.453Z,5.67
2019-06-01T04:58:49.460Z,5.77
2019-06-01T05:01:21.403Z,5.27
2019-06-01T05:03:53.438Z,5.13
2019-06-01T05:06:25.450Z,5.10
2019-06-01T05:08:57.431Z,5.30
2019-06-01T05:11:29.390Z,5.03
2019-06-01T05:14:01.691Z,5.17
2019-06-01T05:16:33.653Z,5.33
2019-06-01T05:19:06.040Z,5.37
2019-06-01T05:21:38.397Z,4.90
2019-06-01T05:24:10.690Z,5.33
2019-06-01T05:26:42.774Z,4.87
2019-06-01T05:29:15.707Z,5.20
2019-06-01T05:31:48.288Z,5.07
2019-06-01T05:34:20.252Z,5.10
2019-06-01T05:36:52.554Z,5.00
2019-06-01T05:39:24.807Z,5.00
2019-06-01T05:41:56.899Z,5.70
2019-06-01T05:44:28.848Z,5.60
2019-06-01T05:47:00.819Z,5.67
2019-06-01T05:49:32.870Z,5.27
2019-06-01T05:52:05.126Z,4.90
2019-06-01T05:54:37.169Z,5.37
2019-06-01T05:57:10.449Z,5.93
2019-06-01T05:59:42.579Z,5.33
2019-06-01T06:02:15.241Z,6.63
2019-06-01T06:04:47.337Z,6.10
2019-06-01T06:07:19.317Z,6.60
2019-06-01T06:09:51.474Z,6.50
2019-06-01T06:12:23.428Z,5.73
2019-06-01T06:14:55.646Z,6.77
2019-06-01T06:17:27.616Z,6.33
2019-06-01T06:19:59.614Z,7.43
2019-06-01T06:22:31.771Z,7.33
2019-06-01T06:25:04.240Z,7.63
2019-06-01T06:27:36.235Z,7.77
2019-06-01T06:30:09.136Z,7.37
2019-06-01T06:32:41.127Z,8.37
2019-06-01T06:35:13.374Z,7.47
2019-06-01T06:37:45.409Z,7.80
2019-06-01T06:40:20.032Z,7.27
2019-06-01T06:42:52.196Z,7.70
2019-06-01T06:45:24.963Z,7.73
2019-06-01T06:47:57.046Z,7.57
2019-06-01T06:50:29.008Z,7.30
2019-06-01T06:53:00.979Z,7.40
2019-06-01T06:55:32.959Z,8.10
2019-06-01T06:58:05.003Z,7.20
2019-06-01T07:00:37.152Z,7.63
2019-06-01T07:03:09.565Z,7.30
2019-06-01T07:05:41.715Z,8.17
2019-06-01T07:08:13.756Z,7.60
2019-06-01T07:10:45.894Z,8.53
2019-06-01T07:13:18.119Z,9.30
2019-06-01T07:15:51.288Z,7.83
2019-06-01T07:18:23.641Z,8.70
2019-06-01T07:20:55.740Z,9.30
2019-06-01T07:23:28.043Z,9.67
2019-06-01T07:26:00.104Z,9.27
2019-06-01T07:28:32.486Z,9.37
2019-06-01T07:31:04.644Z,8.73
2019-06-01T07:33:36.626Z,9.00
2019-06-01T07:36:08.595Z,9.33
2019-06-01T07:38:40.556Z,8.17
2019-06-01T07:41:12.608Z,8.20
2019-06-01T07:43:44.661Z,8.40
2019-06-01T07:46:16.715Z,9.37
2019-06-01T07:48:48.663Z,8.47
2019-06-01T07:51:21.090Z,7.93
2019-06-01T07:53:53.116Z,7.57
2019-06-01T07:56:26.444Z,7.30
2019-06-01T07:58:58.482Z,8.30
2019-06-01T08:01:31.407Z,8.63
2019-06-01T08:04:04.506Z,8.27
2019-06-01T08:06:36.529Z,8.50
2019-06-01T08:09:08.483Z,8.43
2019-06-01T08:11:40.469Z,8.40
2019-06-01T08:14:12.800Z,8.60
2019-06-01T08:16:44.889Z,8.37
2019-06-01T08:19:16.844Z,7.33
2019-06-01T08:21:48.988Z,8.63
2019-06-01T08:24:22.055Z,7.50
2019-06-01T08:26:54.201Z,7.27
2019-06-01T08:29:26.639Z,8.07
2019-06-01T08:31:58.715Z,8.37
2019-06-01T08:34:31.089Z,8.70
2019-06-01T08:37:03.210Z,9.53
2019-06-01T08:39:35.375Z,8.63
2019-06-01T08:42:07.421Z,9.33
2019-06-01T08:44:39.513Z,8.83
2019-06-01T08:47:11.778Z,8.43
2019-06-01T08:49:43.823Z,8.57
2019-06-01T08:52:15.756Z,9.83
2019-06-01T08:54:47.878Z,7.77
2019-06-01T08:57:19.829Z,9.10
2019-06-01T08:59:51.803Z,8.77
2019-06-01T09:02:24.578Z,10.40
2019-06-01T09:04:56.807Z,10.53
2019-06-01T09:07:29.054Z,10.77
2019-06-01T09:10:01.106Z,10.67
2019-06-01T09:12:33.319Z,10.50
2019-06-01T09:15:11.798Z,10.20
2019-06-01T09:17:43.818Z,10.03
2019-06-01T09:20:16.038Z,9.53
2019-06-01T09:22:48.339Z,10.70
2019-06-01T09:25:20.428Z,10.60
2019-06-01T09:27:52.695Z,10.17
2019-06-01T09:30:25.895Z,10.13
2019-06-01T09:32:57.979Z,10.20
2019-06-01T09:35:47.754Z,10.07
2019-06-01T09:38:03.751Z,9.47
2019-06-01T09:40:37.186Z,10.23
2019-06-01T09:43:09.956Z,9.97
2019-06-01T09:45:41.992Z,10.73
2019-06-01T09:48:13.936Z,10.83
2019-06-01T09:50:46.071Z,10.50
2019-06-01T09:53:18.052Z,10.43
2019-06-01T09:55:50.157Z,9.37
2019-06-01T09:58:22.167Z,9.90
2019-06-01T10:00:54.171Z,9.93
2019-06-01T10:03:26.383Z,9.57
2019-06-01T10:06:01.845Z,10.27
2019-06-01T10:08:32.631Z,9.77
2019-06-01T10:11:04.928Z,9.33
2019-06-01T10:13:38.261Z,9.70
2019-06-01T10:16:10.524Z,10.80
2019-06-01T10:18:43.140Z,8.80
2019-06-01T10:21:15.169Z,8.10
2019-06-01T10:23:49.683Z,8.47
2019-06-01T10:26:21.138Z,8.40
2019-06-01T10:28:53.120Z,8.10
2019-06-01T10:31:25.186Z,9.47
2019-06-01T10:33:57.299Z,8.57
2019-06-01T10:36:29.342Z,8.13
2019-06-01T10:39:01.651Z,8.33
2019-06-01T10:41:33.603Z,8.70
2019-06-01T10:44:05.733Z,8.80
2019-06-01T10:46:38.129Z,7.53
2019-06-01T10:49:10.286Z,7.90
2019-06-01T10:51:42.462Z,7.43
2019-06-01T10:54:14.752Z,7.40
2019-06-01T10:56:47.116Z,8.07
2019-06-01T10:59:19.070Z,6.60
2019-06-01T11:01:51.082Z,6.67
2019-06-01T11:04:23.236Z,7.83
2019-06-01T11:06:55.604Z,7.67
2019-06-01T11:09:27.564Z,6.80
2019-06-01T11:11:59.554Z,7.50
2019-06-01T11:14:32.882Z,7.20
2019-06-01T11:17:05.073Z,6.73
2019-06-01T11:19:37.220Z,6.70
2019-06-01T11:22:09.222Z,6.43
2019-06-01T11:24:41.599Z,5.47
2019-06-01T11:27:13.687Z,6.03
2019-06-01T11:29:51.002Z,5.77
2019-06-01T11:32:19.482Z,5.60
2019-06-01T11:34:51.453Z,5.50
2019-06-01T11:37:23.407Z,5.30
2019-06-01T11:39:55.788Z,5.60
2019-06-01T11:42:28.024Z,5.73
2019-06-01T11:45:00.065Z,5.60
2019-06-01T11:47:32.171Z,5.57
2019-06-01T11:50:08.516Z,5.60
2019-06-01T11:52:41.129Z,5.40
2019-06-01T11:55:13.627Z,6.63
2019-06-01T11:57:45.994Z,5.40
2019-06-01T12:00:18.883Z,5.83
2019-06-01T12:02:50.898Z,5.10
2019-06-01T12:05:22.857Z,5.40
2019-06-01T12:07:54.887Z,5.67
2019-06-01T12:10:26.841Z,6.23
2019-06-01T12:12:58.837Z,4.53
2019-06-01T12:15:30.846Z,4.97
2019-06-01T12:18:02.841Z,5.27
2019-06-01T12:20:34.842Z,5.37
2019-06-01T12:23:06.801Z,4.93
2019-06-01T12:25:40.083Z,5.90
2019-06-01T12:28:12.279Z,4.70
2019-06-01T12:30:44.238Z,5.10
2019-06-01T12:33:16.206Z,5.53
2019-06-01T12:35:48.241Z,5.63
2019-06-01T12:38:20.253Z,6.40
2019-06-01T12:40:52.278Z,5.50
2019-06-01T12:43:24.402Z,4.93
2019-06-01T12:46:06.985Z,5.00
2019-06-01T12:48:30.119Z,4.60
2019-06-01T12:51:02.108Z,4.57
2019-06-01T12:53:34.109Z,4.53
2019-06-01T12:56:06.074Z,4.60
2019-06-01T12:58:39.777Z,4.20
2019-06-01T13:01:12.303Z,3.77
2019-06-01T13:03:45.238Z,3.93
2019-06-01T13:06:17.433Z,4.47
2019-06-01T13:08:49.446Z,4.13
2019-06-01T13:11:21.570Z,7.70
2019-06-01T13:13:53.637Z,7.80
2019-06-01T13:16:25.737Z,7.47
2019-06-01T13:18:57.855Z,6.97
2019-06-01T13:21:29.957Z,6.20
2019-06-01T13:24:02.037Z,6.73
2019-06-01T13:26:34.056Z,6.77
2019-06-01T13:29:06.601Z,6.40
2019-06-01T13:31:38.569Z,6.03
2019-06-01T13:34:10.628Z,5.70
2019-06-01T13:36:42.960Z,6.73
2019-06-01T13:39:15.014Z,5.80
2019-06-01T13:41:47.272Z,6.20
2019-06-01T13:44:19.339Z,6.43
2019-06-01T13:46:51.486Z,6.10
2019-06-01T13:49:23.564Z,5.60
2019-06-01T13:51:55.555Z,6.13
2019-06-01T13:54:27.519Z,5.47
2019-06-01T13:56:59.510Z,5.33
2019-06-01T13:59:31.466Z,4.60
2019-06-01T14:02:03.826Z,6.60
2019-06-01T14:04:35.909Z,5.30
2019-06-01T14:07:07.853Z,4.60
2019-06-01T14:09:39.824Z,4.57
2019-06-01T14:12:11.927Z,5.03
2019-06-01T14:14:45.338Z,4.60
2019-06-01T14:17:17.477Z,4.10
2019-06-01T14:19:49.677Z,4.40
2019-06-01T14:22:22.198Z,4.27
2019-06-01T14:25:11.538Z,3.70
2019-06-01T14:27:28.093Z,4.10
2019-06-01T14:30:00.244Z,3.40
2019-06-01T14:32:32.547Z,3.40
2019-06-01T14:35:07.288Z,3.50
2019-06-01T14:37:39.252Z,2.60
2019-06-01T14:40:11.818Z,3.30
2019-06-01T14:42:43.931Z,2.83
2019-06-01T14:45:17.239Z,2.80
2019-06-01T14:47:49.430Z,2.40
2019-06-01T14:50:21.578Z,3.00
2019-06-01T14:52:53.747Z,2.70
2019-06-01T14:55:25.744Z,3.03
2019-06-01T14:57:58.455Z,4.50
2019-06-01T15:00:30.531Z,5.57
2019-06-01T15:03:02.932Z,5.37
2019-06-01T15:05:35.080Z,5.97
2019-06-01T15:08:07.040Z,5.67
2019-06-01T15:10:39.158Z,5.23
2019-06-01T15:13:11.360Z,5.60
2019-06-01T15:15:43.389Z,5.73
2019-06-01T15:18:15.737Z,5.83
2019-06-01T15:20:47.852Z,6.23
2019-06-01T15:23:19.872Z,5.90
2019-06-01T15:25:52.421Z,5.13
2019-06-01T15:28:24.490Z,6.00
2019-06-01T15:30:57.106Z,5.70
2019-06-01T15:33:29.253Z,6.43
2019-06-01T15:36:01.859Z,5.37
2019-06-01T15:38:34.427Z,5.23
2019-06-01T15:41:06.380Z,5.73
2019-06-01T15:43:38.376Z,5.07
2019-06-01T15:46:10.473Z,5.53
2019-06-01T15:48:42.559Z,5.73
2019-06-01T15:51:14.548Z,6.73
2019-06-01T15:53:46.708Z,5.67
2019-06-01T15:56:18.640Z,6.00
2019-06-01T15:58:54.606Z,6.20
2019-06-01T16:01:24.322Z,6.20
2019-06-01T16:03:57.326Z,5.50
2019-06-01T16:06:29.844Z,5.87
2019-06-01T16:09:01.889Z,5.77
2019-06-01T16:11:34.001Z,5.77
2019-06-01T16:14:06.091Z,6.20
2019-06-01T16:16:38.206Z,6.43
2019-06-01T16:19:10.171Z,6.47
2019-06-01T16:21:42.160Z,6.57
2019-06-01T16:24:14.089Z,7.43
2019-06-01T16:26:46.061Z,6.47
2019-06-01T16:29:18.040Z,6.53
2019-06-01T16:31:50.090Z,7.27
2019-06-01T16:34:22.122Z,6.67
2019-06-01T16:36:54.801Z,6.90
2019-06-01T16:39:26.867Z,6.40
2019-06-01T16:41:59.812Z,6.70
2019-06-01T16:44:31.846Z,5.63
2019-06-01T16:47:04.517Z,6.70
2019-06-01T16:49:36.615Z,6.43
2019-06-01T16:52:08.765Z,6.10
2019-06-01T16:54:40.727Z,6.00
2019-06-01T16:57:12.732Z,6.43
2019-06-01T16:59:44.796Z,5.87
2019-06-01T17:02:17.003Z,5.53
2019-06-01T17:04:49.052Z,6.03
2019-06-01T17:07:20.991Z,5.90
2019-06-01T17:09:53.043Z,5.80
2019-06-01T17:12:25.031Z,5.23
2019-06-01T17:14:57.236Z,5.37
2019-06-01T17:17:29.254Z,5.17
2019-06-01T17:20:01.267Z,5.13
2019-06-01T17:22:33.303Z,4.97
2019-06-01T17:25:08.023Z,5.03
2019-06-01T17:27:40.127Z,4.50
2019-06-01T17:30:12.223Z,5.00
2019-06-01T17:32:44.434Z,4.90
2019-06-01T17:35:16.421Z,4.50
2019-06-01T17:37:48.690Z,4.10
2019-06-01T17:40:36.026Z,4.33
2019-06-01T17:42:54.313Z,4.50
2019-06-01T17:45:26.412Z,4.43
2019-06-01T17:48:13.956Z,5.27
2019-06-01T17:50:32.434Z,5.53
2019-06-01T17:53:04.838Z,4.40
2019-06-01T17:55:39.395Z,4.33
2019-06-01T17:58:12.487Z,4.30
2019-06-01T18:00:45.017Z,4.00
2019-06-01T18:03:17.030Z,4.10
2019-06-01T18:05:49.281Z,4.73
2019-06-01T18:08:21.552Z,3.80
2019-06-01T18:10:54.926Z,4.10
2019-06-01T18:13:27.199Z,3.80
2019-06-01T18:15:59.197Z,4.97
2019-06-01T18:18:31.216Z,4.73
2019-06-01T18:21:04.173Z,4.90
2019-06-01T18:23:36.439Z,4.50
2019-06-01T18:26:11.183Z,4.30
2019-06-01T18:28:43.141Z,6.53
2019-06-01T18:31:15.199Z,3.53
2019-06-01T18:33:47.288Z,3.60
2019-06-01T18:36:19.241Z,3.47
2019-06-01T18:38:51.229Z,3.87
2019-06-01T18:41:23.309Z,3.83
2019-06-01T18:43:55.649Z,3.47
2019-06-01T18:46:28.016Z,3.97
2019-06-01T18:49:00.384Z,3.40
2019-06-01T18:51:32.740Z,3.57
2019-06-01T18:54:04.960Z,3.17
2019-06-01T18:56:36.929Z,2.90
2019-06-01T18:59:10.193Z,3.40
2019-06-01T19:01:42.272Z,3.00
2019-06-01T19:04:14.329Z,3.10
2019-06-01T19:06:46.583Z,3.47
2019-06-01T19:09:18.517Z,2.83
2019-06-01T19:11:50.553Z,2.83
2019-06-01T19:14:22.571Z,2.63
2019-06-01T19:16:54.758Z,3.33
2019-06-01T19:19:26.844Z,2.83
2019-06-01T19:21:58.792Z,3.10
2019-06-01T19:24:31.083Z,2.47
2019-06-01T19:27:03.150Z,2.70
2019-06-01T19:29:35.210Z,3.30
2019-06-01T19:32:08.697Z,3.10
2019-06-01T19:34:41.084Z,2.57
2019-06-01T19:37:13.332Z,3.40
2019-06-01T19:39:47.044Z,2.80
2019-06-01T19:42:19.053Z,2.40
2019-06-01T19:44:51.039Z,3.00
2019-06-01T19:47:22.982Z,2.87
2019-06-01T19:49:55.028Z,2.83
2019-06-01T19:52:26.994Z,2.57
2019-06-01T19:54:58.970Z,2.50
2019-06-01T19:57:30.963Z,3.13
2019-06-01T20:00:03.550Z,2.37
2019-06-01T20:02:35.751Z,3.17
2019-06-01T20:05:08.649Z,3.30
2019-06-01T20:07:40.692Z,2.97
2019-06-01T20:10:14.426Z,2.80
2019-06-01T20:12:46.733Z,2.93
2019-06-01T20:15:19.621Z,2.90
2019-06-01T20:17:51.729Z,3.70
2019-06-01T20:20:23.857Z,3.67
2019-06-01T20:22:55.844Z,3.50
2019-06-01T20:25:27.983Z,2.80
2019-06-01T20:28:00.212Z,2.93
2019-06-01T20:30:32.504Z,3.03
2019-06-01T20:33:04.931Z,2.70
2019-06-01T20:35:36.895Z,3.07
2019-06-01T20:38:08.932Z,2.77
2019-06-01T20:40:41.250Z,2.60
2019-06-01T20:43:14.542Z,2.83
2019-06-01T20:45:46.609Z,3.30
2019-06-01T20:48:20.734Z,3.20
2019-06-01T20:50:53.026Z,2.93
2019-06-01T20:53:25.370Z,3.43
2019-06-01T20:55:57.392Z,3.03
2019-06-01T20:58:29.366Z,3.00
2019-06-01T21:01:01.354Z,3.27
2019-06-01T21:03:33.327Z,3.23
2019-06-01T21:06:05.426Z,3.37
2019-06-01T21:08:37.429Z,3.40
2019-06-01T21:11:09.694Z,3.40
2019-06-01T21:13:41.812Z,3.13
2019-06-01T21:16:14.137Z,3.30
2019-06-01T21:18:46.146Z,2.97
2019-06-01T21:21:18.266Z,3.30
2019-06-01T21:23:50.363Z,3.23
2019-06-01T21:26:23.057Z,3.27
2019-06-01T21:28:55.368Z,3.07
2019-06-01T21:31:27.482Z,3.40
2019-06-01T21:33:59.521Z,3.73
2019-06-01T21:36:31.549Z,3.40
2019-06-01T21:39:05.056Z,3.70
2019-06-01T21:41:37.054Z,3.73
2019-06-01T21:44:09.095Z,3.53
2019-06-01T21:46:41.077Z,3.60
2019-06-01T21:49:13.143Z,3.63
2019-06-01T21:51:45.256Z,3.97
2019-06-01T21:54:18.051Z,3.63
2019-06-01T21:56:50.275Z,4.10
2019-06-01T21:59:22.805Z,3.60
2019-06-01T22:01:54.808Z,3.73
2019-06-01T22:04:27.217Z,4.00
2019-06-01T22:06:59.235Z,4.30
2019-06-01T22:09:31.327Z,3.97
2019-06-01T22:12:03.309Z,4.17
2019-06-01T22:14:35.434Z,4.50
2019-06-01T22:17:07.501Z,4.17
2019-06-01T22:19:39.459Z,3.80
2019-06-01T22:22:11.433Z,4.10
2019-06-01T22:24:43.474Z,3.77
2019-06-01T22:27:15.479Z,3.57
2019-06-01T22:29:47.469Z,4.40
2019-06-01T22:32:22.957Z,5.50
2019-06-01T22:34:53.077Z,6.07
2019-06-01T22:37:25.794Z,6.03
2019-06-01T22:39:57.864Z,5.03
2019-06-01T22:42:29.874Z,5.90
2019-06-01T22:45:01.831Z,5.37
2019-06-01T22:47:34.058Z,5.53
2019-06-01T22:50:07.695Z,5.27
2019-06-01T22:52:39.949Z,5.30
2019-06-01T22:55:12.660Z,5.50
2019-06-01T22:57:44.693Z,4.93
2019-06-01T23:00:17.663Z,5.00
2019-06-01T23:02:49.637Z,4.40
2019-06-01T23:05:22.887Z,5.03
2019-06-01T23:07:55.009Z,5.33
2019-06-01T23:10:31.686Z,5.10
2019-06-01T23:13:00.823Z,5.10
2019-06-01T23:15:32.934Z,4.43
2019-06-01T23:18:05.021Z,4.60
2019-06-01T23:20:36.984Z,4.80
2019-06-01T23:23:09.017Z,4.33
2019-06-01T23:25:40.971Z,4.83
2019-06-01T23:28:12.951Z,4.90
2019-06-01T23:30:45.271Z,5.47
2019-06-01T23:33:17.323Z,5.07
2019-06-01T23:35:49.281Z,5.50
2019-06-01T23:38:22.474Z,5.80
2019-06-01T23:40:54.520Z,5.37
2019-06-01T23:43:26.974Z,5.33
2019-06-01T23:45:59.184Z,5.43
2019-06-01T23:48:31.327Z,5.10
2019-06-01T23:51:03.341Z,5.00
2019-06-01T23:53:35.411Z,6.13
2019-06-01T23:56:07.454Z,4.83
2019-06-01T23:58:39.710Z,4.77
